createdAt,value
2017-11-30T00:01:46.638Z,100483.40
2017-11-30T00:04:16.760Z,100487.69
2017-11-30T00:06:45.755Z,100492.40
2017-11-30T00:09:14.853Z,100486.79
2017-11-30T00:11:43.852Z,100489.34
2017-11-30T00:14:12.836Z,100487.20
2017-11-30T00:16:42.894Z,100497.72
2017-11-30T00:19:12.358Z,100498.52
2017-11-30T00:21:41.251Z,100496.49
2017-11-30T00:24:12.163Z,100498.11
2017-11-30T00:26:42.155Z,100501.05
2017-11-30T00:29:13.802Z,100500.20
2017-11-30T00:31:43.675Z,100502.67
2017-11-30T00:34:13.573Z,100494.95
2017-11-30T00:36:42.584Z,100489.91
2017-11-30T00:39:12.497Z,100489.41
2017-11-30T00:41:41.538Z,100478.88
2017-11-30T00:44:22.876Z,100472.06
2017-11-30T00:46:51.872Z,100469.36
2017-11-30T00:49:20.961Z,100467.61
2017-11-30T00:51:50.060Z,100465.01
2017-11-30T00:54:19.258Z,100458.59
2017-11-30T00:56:48.214Z,100460.30
2017-11-30T00:59:17.446Z,100468.75
2017-11-30T01:01:48.695Z,100463.69
2017-11-30T01:04:20.280Z,100463.34
2017-11-30T01:06:50.373Z,100453.33
2017-11-30T01:09:20.258Z,100453.79
2017-11-30T01:14:24.252Z,100460.98
2017-11-30T01:16:53.303Z,100455.98
2017-11-30T01:19:24.043Z,100447.59
2017-11-30T01:21:52.967Z,100449.33
2017-11-30T01:24:21.862Z,100455.30
2017-11-30T01:26:51.682Z,100455.67
2017-11-30T01:29:20.827Z,100456.09
2017-11-30T01:31:50.691Z,100455.16
2017-11-30T01:34:19.740Z,100447.94
2017-11-30T01:36:48.892Z,100445.84
2017-11-30T01:39:18.304Z,100446.28
2017-11-30T01:44:21.654Z,100448.91
2017-11-30T01:46:51.594Z,100444.30
2017-11-30T01:49:20.763Z,100430.92
2017-11-30T01:51:50.686Z,100428.51
2017-11-30T01:54:19.813Z,100431.55
2017-11-30T01:56:50.797Z,100426.19
2017-11-30T01:59:19.854Z,100425.80
2017-11-30T02:01:52.092Z,100424.97
2017-11-30T02:04:21.599Z,100426.52
2017-11-30T02:06:53.650Z,100424.92
2017-11-30T02:09:23.668Z,100424.89
2017-11-30T02:11:52.908Z,100420.76
2017-11-30T02:14:23.811Z,100426.16
2017-11-30T02:16:53.996Z,100424.47
2017-11-30T02:19:23.291Z,100417.27
2017-11-30T02:21:54.581Z,100413.04
2017-11-30T02:24:25.164Z,100412.21
2017-11-30T02:29:29.764Z,100402.55
2017-11-30T02:32:02.024Z,100403.03
2017-11-30T02:34:32.774Z,100407.17
2017-11-30T02:37:01.853Z,100413.81
2017-11-30T02:39:30.948Z,100413.95
2017-11-30T02:41:59.941Z,100412.78
2017-11-30T02:44:29.986Z,100395.07
2017-11-30T02:46:59.973Z,100392.14
2017-11-30T02:49:33.779Z,100396.45
2017-11-30T02:52:04.923Z,100404.05
2017-11-30T02:54:34.627Z,100406.53
2017-11-30T02:57:04.858Z,100401.92
2017-11-30T02:59:33.992Z,100402.39
2017-11-30T03:02:05.143Z,100394.86
2017-11-30T03:04:35.073Z,100396.59
2017-11-30T03:07:04.178Z,100400.05
2017-11-30T03:09:33.262Z,100398.30
2017-11-30T03:12:02.337Z,100392.89
2017-11-30T03:14:31.445Z,100401.36
2017-11-30T03:17:00.694Z,100391.20
2017-11-30T03:19:30.514Z,100394.56
2017-11-30T03:22:05.432Z,100394.52
2017-11-30T03:24:34.658Z,100387.74
2017-11-30T03:27:03.776Z,100392.78
2017-11-30T03:29:32.864Z,100390.23
2017-11-30T03:32:01.822Z,100385.95
2017-11-30T03:34:30.871Z,100387.72
2017-11-30T03:37:00.736Z,100384.37
2017-11-30T03:39:29.762Z,100382.81
2017-11-30T03:41:59.546Z,100374.83
2017-11-30T03:44:30.349Z,100373.16
2017-11-30T03:46:59.468Z,100381.61
2017-11-30T03:49:29.284Z,100385.01
2017-11-30T03:51:59.270Z,100385.09
2017-11-30T03:54:28.355Z,100368.30
2017-11-30T03:56:57.356Z,100375.18
2017-11-30T03:59:27.442Z,100372.30
2017-11-30T04:01:56.542Z,100369.44
2017-11-30T04:04:26.557Z,100367.42
2017-11-30T04:07:01.658Z,100360.33
2017-11-30T04:09:30.864Z,100363.35
2017-11-30T04:12:00.805Z,100353.30
2017-11-30T04:14:30.940Z,100355.05
2017-11-30T04:17:00.854Z,100346.69
2017-11-30T04:19:30.661Z,100341.64
2017-11-30T04:22:00.642Z,100352.27
2017-11-30T04:24:29.835Z,100348.48
2017-11-30T04:27:00.557Z,100344.66
2017-11-30T04:29:32.198Z,100347.20
2017-11-30T04:32:01.306Z,100348.48
2017-11-30T04:34:30.461Z,100344.73
2017-11-30T04:36:59.611Z,100336.68
2017-11-30T04:39:28.698Z,100337.14
2017-11-30T04:41:58.625Z,100340.95
2017-11-30T04:44:30.077Z,100338.44
2017-11-30T04:46:59.999Z,100349.46
2017-11-30T04:49:29.090Z,100346.92
2017-11-30T04:51:59.153Z,100340.17
2017-11-30T04:54:29.280Z,100337.66
2017-11-30T04:56:58.425Z,100334.70
2017-11-30T04:59:28.317Z,100338.08
2017-11-30T05:01:57.474Z,100342.37
2017-11-30T05:04:26.767Z,100345.33
2017-11-30T05:06:56.080Z,100343.22
2017-11-30T05:09:25.265Z,100348.33
2017-11-30T05:11:54.237Z,100358.47
2017-11-30T05:16:58.753Z,100345.39
2017-11-30T05:19:27.803Z,100339.89
2017-11-30T05:24:33.327Z,100334.81
2017-11-30T05:27:02.261Z,100331.86
2017-11-30T05:29:31.359Z,100336.50
2017-11-30T05:32:01.264Z,100336.09
2017-11-30T05:34:30.222Z,100340.73
2017-11-30T05:36:59.621Z,100330.16
2017-11-30T05:39:30.460Z,100336.95
2017-11-30T05:42:01.394Z,100333.97
2017-11-30T05:44:30.361Z,100340.73
2017-11-30T05:47:01.330Z,100341.57
2017-11-30T05:49:30.221Z,100336.48
2017-11-30T05:51:59.423Z,100335.66
2017-11-30T05:54:28.413Z,100341.55
2017-11-30T05:56:57.438Z,100343.22
2017-11-30T05:59:26.599Z,100345.77
2017-11-30T06:01:57.564Z,100333.47
2017-11-30T06:04:28.382Z,100322.87
2017-11-30T06:06:59.012Z,100336.41
2017-11-30T06:09:28.001Z,100333.01
2017-11-30T06:11:57.116Z,100337.62
2017-11-30T06:14:26.957Z,100337.61
2017-11-30T06:16:56.121Z,100337.61
2017-11-30T06:19:25.126Z,100332.95
2017-11-30T06:21:54.169Z,100329.61
2017-11-30T06:24:23.299Z,100322.01
2017-11-30T06:26:53.046Z,100319.91
2017-11-30T06:29:23.094Z,100323.24
2017-11-30T06:31:53.096Z,100326.20
2017-11-30T06:34:22.185Z,100316.45
2017-11-30T06:36:51.237Z,100313.50
2017-11-30T06:39:23.200Z,100311.36
2017-11-30T06:41:52.460Z,100308.73
2017-11-30T06:44:22.580Z,100312.06
2017-11-30T06:46:51.765Z,100315.00
2017-11-30T06:49:21.019Z,100310.36
2017-11-30T06:51:49.983Z,100310.78
2017-11-30T06:54:22.840Z,100316.19
2017-11-30T06:56:52.778Z,100313.63
2017-11-30T06:59:24.567Z,100300.05
2017-11-30T07:01:53.663Z,100296.58
2017-11-30T07:04:23.469Z,100303.75
2017-11-30T07:09:29.656Z,100302.56
2017-11-30T07:11:58.903Z,100299.59
2017-11-30T07:14:28.777Z,100303.81
2017-11-30T07:16:58.708Z,100299.13
2017-11-30T07:19:27.711Z,100294.08
2017-11-30T07:21:57.638Z,100292.77
2017-11-30T07:24:27.717Z,100288.91
2017-11-30T07:26:56.867Z,100286.34
2017-11-30T07:29:25.910Z,100298.19
2017-11-30T07:31:56.034Z,100291.77
2017-11-30T07:34:26.241Z,100287.50
2017-11-30T07:36:55.460Z,100292.44
2017-11-30T07:39:26.226Z,100293.58
2017-11-30T07:41:55.274Z,100287.14
2017-11-30T07:44:24.471Z,100284.08
2017-11-30T07:46:54.635Z,100278.95
2017-11-30T07:49:23.675Z,100277.23
2017-11-30T07:51:54.628Z,100261.97
2017-11-30T07:54:24.749Z,100263.70
2017-11-30T07:56:54.520Z,100264.08
2017-11-30T07:59:23.555Z,100263.99
2017-11-30T08:01:53.620Z,100259.73
2017-11-30T08:04:23.619Z,100270.20
2017-11-30T08:06:52.579Z,100273.99
2017-11-30T08:09:22.453Z,100269.46
2017-11-30T08:11:52.334Z,100259.44
2017-11-30T08:14:21.413Z,100252.66
2017-11-30T08:16:50.608Z,100255.18
2017-11-30T08:19:19.736Z,100251.91
2017-11-30T08:21:48.742Z,100259.41
2017-11-30T08:24:18.948Z,100255.08
2017-11-30T08:26:47.918Z,100261.00
2017-11-30T08:29:16.915Z,100266.84
2017-11-30T08:31:48.259Z,100259.88
2017-11-30T08:34:17.352Z,100262.89
2017-11-30T08:36:46.450Z,100257.87
2017-11-30T08:39:16.440Z,100258.42
2017-11-30T08:41:45.465Z,100256.12
2017-11-30T08:44:15.638Z,100255.37
2017-11-30T08:46:45.730Z,100250.27
2017-11-30T08:49:15.690Z,100240.63
2017-11-30T08:51:45.420Z,100241.02
2017-11-30T08:54:15.590Z,100238.08
2017-11-30T08:56:44.809Z,100240.61
2017-11-30T08:59:13.889Z,100237.66
2017-11-30T09:01:44.063Z,100239.76
2017-11-30T09:04:14.776Z,100237.16
2017-11-30T09:06:43.895Z,100231.26
2017-11-30T09:09:16.148Z,100230.01
2017-11-30T09:11:49.664Z,100218.96
2017-11-30T09:14:19.568Z,100223.64
2017-11-30T09:16:49.596Z,100213.42
2017-11-30T09:19:20.476Z,100215.48
2017-11-30T09:21:49.402Z,100211.97
2017-11-30T09:24:18.623Z,100210.32
2017-11-30T09:26:48.796Z,100210.21
2017-11-30T09:29:17.843Z,100194.62
2017-11-30T09:31:46.952Z,100190.44
2017-11-30T09:34:15.879Z,100187.83
2017-11-30T09:36:45.034Z,100180.98
2017-11-30T09:39:16.110Z,100176.16
2017-11-30T09:41:46.904Z,100176.81
2017-11-30T09:44:15.995Z,100182.72
2017-11-30T09:46:46.059Z,100171.61
2017-11-30T09:49:15.123Z,100178.84
2017-11-30T09:51:44.209Z,100177.45
2017-11-30T09:54:13.965Z,100169.63
2017-11-30T09:56:43.998Z,100171.35
2017-11-30T09:59:13.015Z,100161.57
2017-11-30T10:01:42.906Z,100154.23
2017-11-30T10:04:13.888Z,100151.25
2017-11-30T10:06:43.905Z,100149.17
2017-11-30T10:09:15.359Z,100153.03
2017-11-30T10:11:45.583Z,100139.49
2017-11-30T10:14:15.445Z,100137.09
2017-11-30T10:16:44.596Z,100142.75
2017-11-30T10:19:13.633Z,100141.94
2017-11-30T10:21:42.788Z,100128.27
2017-11-30T10:26:47.299Z,100118.09
2017-11-30T10:29:16.204Z,100113.63
2017-11-30T10:31:45.206Z,100114.38
2017-11-30T10:34:16.229Z,100111.61
2017-11-30T10:36:45.258Z,100112.52
2017-11-30T10:39:17.400Z,100114.06
2017-11-30T10:41:46.346Z,100112.32
2017-11-30T10:44:16.420Z,100108.61
2017-11-30T10:46:47.056Z,100105.12
2017-11-30T10:49:16.561Z,100104.89
2017-11-30T10:51:45.551Z,100098.99
2017-11-30T10:54:14.531Z,100091.58
2017-11-30T10:56:43.539Z,100084.16
2017-11-30T10:59:12.739Z,100061.60
2017-11-30T11:01:41.736Z,100060.45
2017-11-30T11:04:11.643Z,100056.67
2017-11-30T11:06:41.520Z,100045.55
2017-11-30T11:09:16.023Z,100043.86
2017-11-30T11:11:45.221Z,100040.23
2017-11-30T11:14:14.338Z,100039.72
2017-11-30T11:16:45.244Z,100037.73
2017-11-30T11:19:14.949Z,100032.61
2017-11-30T11:21:44.229Z,100029.91
2017-11-30T11:24:14.241Z,100026.13
2017-11-30T11:26:44.243Z,100025.08
2017-11-30T11:29:13.970Z,100017.61
2017-11-30T11:31:44.557Z,100021.30
2017-11-30T11:34:13.811Z,100023.92
2017-11-30T11:36:43.866Z,100035.96
2017-11-30T11:39:16.707Z,100028.55
2017-11-30T11:41:45.889Z,100018.92
2017-11-30T11:44:14.902Z,100022.81
2017-11-30T11:46:44.230Z,100024.72
2017-11-30T11:49:14.072Z,100012.92
2017-11-30T11:51:44.032Z,100013.34
2017-11-30T11:54:13.411Z,100038.13
2017-11-30T11:56:42.326Z,100037.20
2017-11-30T11:59:11.285Z,100037.30
2017-11-30T12:01:43.330Z,100031.52
2017-11-30T12:04:12.344Z,100031.56
2017-11-30T12:06:44.093Z,100003.55
2017-11-30T12:09:19.041Z,100006.75
2017-11-30T12:11:48.267Z,100000.56
2017-11-30T12:14:20.579Z,99989.86
2017-11-30T12:16:50.347Z,99997.88
2017-11-30T12:19:19.452Z,100011.36
2017-11-30T12:21:51.205Z,99995.33
2017-11-30T12:24:20.409Z,100002.98
2017-11-30T12:26:50.268Z,100001.52
2017-11-30T12:29:19.368Z,99997.99
2017-11-30T12:31:48.533Z,99993.00
2017-11-30T12:34:17.645Z,100005.23
2017-11-30T12:36:48.036Z,99992.82
2017-11-30T12:39:16.991Z,99982.91
2017-11-30T12:41:46.227Z,99988.45
2017-11-30T12:44:17.168Z,99975.05
2017-11-30T12:46:46.405Z,99972.64
2017-11-30T12:49:16.303Z,99973.13
2017-11-30T12:51:46.426Z,99971.35
2017-11-30T12:54:16.520Z,99969.23
2017-11-30T12:56:45.650Z,99960.13
2017-11-30T12:59:15.533Z,99952.09
2017-11-30T13:01:47.511Z,99955.91
2017-11-30T13:04:18.156Z,99956.81
2017-11-30T13:06:47.339Z,99958.13
2017-11-30T13:09:17.373Z,99955.48
2017-11-30T13:11:49.511Z,99948.63
2017-11-30T13:14:19.474Z,99945.06
2017-11-30T13:16:49.147Z,99945.13
2017-11-30T13:21:55.928Z,99938.97
2017-11-30T13:24:25.061Z,99936.05
2017-11-30T13:26:53.990Z,99945.42
2017-11-30T13:29:22.985Z,99940.28
2017-11-30T13:31:53.231Z,99935.74
2017-11-30T13:34:22.175Z,99933.13
2017-11-30T13:36:52.195Z,99940.22
2017-11-30T13:39:21.238Z,99944.83
2017-11-30T13:41:53.112Z,99957.93
2017-11-30T13:44:22.433Z,99955.03
2017-11-30T13:46:51.365Z,99946.13
2017-11-30T13:49:20.233Z,99949.95
2017-11-30T13:51:55.308Z,99940.27
2017-11-30T13:54:25.244Z,99931.23
2017-11-30T13:56:54.370Z,99913.12
2017-11-30T13:59:23.429Z,99913.16
2017-11-30T14:01:52.615Z,99911.30
2017-11-30T14:04:21.654Z,99905.03
2017-11-30T14:06:52.243Z,99893.59
2017-11-30T14:09:21.346Z,99902.53
2017-11-30T14:11:50.439Z,99897.89
2017-11-30T14:14:19.752Z,99895.05
2017-11-30T14:16:49.682Z,99898.00
2017-11-30T14:19:20.539Z,99904.44
2017-11-30T14:21:50.378Z,99907.26
2017-11-30T14:24:19.442Z,99907.08
2017-11-30T14:26:50.859Z,99909.20
2017-11-30T14:29:20.041Z,99909.61
2017-11-30T14:31:49.301Z,99913.70
2017-11-30T14:34:18.499Z,99917.05
2017-11-30T14:36:48.570Z,99922.76
2017-11-30T14:39:17.651Z,99927.63
2017-11-30T14:41:46.787Z,99928.80
2017-11-30T14:44:17.789Z,99937.66
2017-11-30T14:46:46.798Z,99942.44
2017-11-30T14:49:17.643Z,99945.84
2017-11-30T14:51:46.665Z,99941.50
2017-11-30T14:54:16.459Z,99935.08
2017-11-30T14:56:45.432Z,99942.78
2017-11-30T14:59:14.620Z,99935.58
2017-11-30T15:01:43.693Z,99925.33
2017-11-30T15:04:12.662Z,99926.68
2017-11-30T15:06:41.656Z,99922.27
2017-11-30T15:09:11.529Z,99927.41
2017-11-30T15:11:42.182Z,99907.77
2017-11-30T15:14:11.256Z,99907.83
2017-11-30T15:16:40.146Z,99900.98
2017-11-30T15:19:12.014Z,99904.70
2017-11-30T15:21:42.040Z,99911.48
2017-11-30T15:24:11.019Z,99910.48
2017-11-30T15:26:41.454Z,99914.17
2017-11-30T15:29:11.929Z,99920.96
2017-11-30T15:31:41.436Z,99931.45
2017-11-30T15:34:13.245Z,99948.00
2017-11-30T15:36:42.439Z,99945.75
2017-11-30T15:39:11.456Z,99941.38
2017-11-30T15:41:43.005Z,99943.86
2017-11-30T15:44:12.011Z,99946.27
2017-11-30T15:46:41.126Z,99954.75
2017-11-30T15:49:10.963Z,99958.34
2017-11-30T15:51:41.817Z,99953.25
2017-11-30T15:54:10.732Z,99951.41
2017-11-30T15:56:40.942Z,99957.61
2017-11-30T15:59:10.587Z,99957.53
2017-11-30T16:01:39.580Z,99946.36
2017-11-30T16:04:11.919Z,99960.52
2017-11-30T16:06:41.738Z,99953.55
2017-11-30T16:09:11.462Z,99955.92
2017-11-30T16:11:40.560Z,99957.88
2017-11-30T16:14:10.761Z,99961.36
2017-11-30T16:16:40.624Z,99965.55
2017-11-30T16:19:10.461Z,99967.72
2017-11-30T16:21:39.573Z,99957.46
2017-11-30T16:24:08.532Z,99966.10
2017-11-30T16:26:37.572Z,99961.34
2017-11-30T16:29:06.620Z,99959.53
2017-11-30T16:31:35.703Z,99965.86
2017-11-30T16:34:06.907Z,99961.56
2017-11-30T16:36:36.332Z,99960.33
2017-11-30T16:39:05.799Z,99969.69
2017-11-30T16:41:35.535Z,99978.23
2017-11-30T16:44:04.860Z,99975.97
2017-11-30T16:46:33.815Z,99979.78
2017-11-30T16:49:03.255Z,99978.40
2017-11-30T16:51:33.500Z,99978.44
2017-11-30T16:54:03.383Z,99981.23
2017-11-30T16:56:33.698Z,99986.34
2017-11-30T16:59:02.683Z,99984.92
2017-11-30T17:01:31.776Z,99983.03
2017-11-30T17:04:01.178Z,99985.41
2017-11-30T17:06:31.138Z,99981.09
2017-11-30T17:09:00.447Z,99986.01
2017-11-30T17:11:31.475Z,99991.90
2017-11-30T17:14:03.303Z,99995.78
2017-11-30T17:16:36.030Z,99994.34
2017-11-30T17:19:05.075Z,99992.16
2017-11-30T17:21:34.275Z,100000.20
2017-11-30T17:24:04.240Z,99998.92
2017-11-30T17:26:33.326Z,99997.58
2017-11-30T17:29:02.339Z,99994.46
2017-11-30T17:31:35.159Z,99992.14
2017-11-30T17:34:04.237Z,99992.36
2017-11-30T17:36:34.795Z,99987.34
2017-11-30T17:39:06.465Z,99983.69
2017-11-30T17:41:37.188Z,99983.84
2017-11-30T17:44:07.109Z,99980.30
2017-11-30T17:46:37.646Z,99974.88
2017-11-30T17:49:07.460Z,99975.27
2017-11-30T17:51:37.340Z,99983.72
2017-11-30T17:54:07.388Z,99973.94
2017-11-30T17:56:37.505Z,99977.00
2017-11-30T17:59:07.604Z,99977.94
2017-11-30T18:01:39.456Z,99984.92
2017-11-30T18:04:09.094Z,99981.59
2017-11-30T18:06:39.948Z,99979.69
2017-11-30T18:09:09.994Z,99980.16
2017-11-30T18:11:39.968Z,99985.95
2017-11-30T18:14:09.037Z,99984.85
2017-11-30T18:16:38.983Z,99971.19
2017-11-30T18:19:09.614Z,99968.01
2017-11-30T18:21:39.508Z,99971.39
2017-11-30T18:24:10.608Z,99961.34
2017-11-30T18:29:15.819Z,99963.73
2017-11-30T18:31:46.232Z,99949.30
2017-11-30T18:34:16.876Z,99959.00
2017-11-30T18:36:47.045Z,99960.00
2017-11-30T18:39:16.570Z,99964.03
2017-11-30T18:41:46.871Z,99963.19
2017-11-30T18:44:16.861Z,99968.33
2017-11-30T18:46:46.036Z,99960.28
2017-11-30T18:49:19.191Z,99960.36
2017-11-30T18:51:49.380Z,99971.64
2017-11-30T18:54:18.643Z,99968.91
2017-11-30T18:56:48.408Z,99964.48
2017-11-30T18:59:18.360Z,99965.88
2017-11-30T19:01:48.118Z,99959.08
2017-11-30T19:04:19.024Z,99956.01
2017-11-30T19:06:49.213Z,99957.89
2017-11-30T19:09:18.293Z,99953.32
2017-11-30T19:11:48.227Z,99954.63
2017-11-30T19:14:17.610Z,99957.61
2017-11-30T19:16:46.585Z,99956.55
2017-11-30T19:19:17.484Z,99950.94
2017-11-30T19:21:47.591Z,99947.69
2017-11-30T19:24:16.804Z,99944.90
2017-11-30T19:26:47.209Z,99950.02
2017-11-30T19:29:16.230Z,99948.02
2017-11-30T19:31:45.259Z,99936.74
2017-11-30T19:34:15.561Z,99937.77
2017-11-30T19:36:45.935Z,99933.84
2017-11-30T19:39:14.951Z,99930.27
2017-11-30T19:41:44.831Z,99939.33
2017-11-30T19:44:13.974Z,99947.23
2017-11-30T19:46:44.008Z,99948.88
2017-11-30T19:49:13.357Z,99945.22
2017-11-30T19:51:42.394Z,99950.98
2017-11-30T19:54:11.450Z,99951.88
2017-11-30T19:56:43.459Z,99956.52
2017-11-30T19:59:12.455Z,99946.06
2017-11-30T20:01:41.897Z,99945.96
2017-11-30T20:04:11.754Z,99944.28
2017-11-30T20:06:41.271Z,99948.47
2017-11-30T20:09:10.495Z,99950.59
2017-11-30T20:11:41.403Z,99941.64
2017-11-30T20:14:10.717Z,99943.03
2017-11-30T20:16:41.037Z,99935.47
2017-11-30T20:19:11.759Z,99923.38
2017-11-30T20:21:41.039Z,99919.41
2017-11-30T20:24:12.408Z,99900.28
2017-11-30T20:26:42.072Z,99906.95
2017-11-30T20:29:11.603Z,99908.66
2017-11-30T20:31:46.398Z,99910.55
2017-11-30T20:34:16.605Z,99911.94
2017-11-30T20:36:45.890Z,99914.09
2017-11-30T20:39:15.927Z,99904.75
2017-11-30T20:41:45.505Z,99902.75
2017-11-30T20:44:15.094Z,99899.73
2017-11-30T20:46:45.552Z,99912.97
2017-11-30T20:49:15.637Z,99914.20
2017-11-30T20:51:45.009Z,99912.53
2017-11-30T20:54:14.040Z,99910.14
2017-11-30T20:56:43.054Z,99913.38
2017-11-30T20:59:12.727Z,99903.48
2017-11-30T21:01:43.914Z,99901.06
2017-11-30T21:04:14.933Z,99896.36
2017-11-30T21:06:46.853Z,99914.09
2017-11-30T21:09:17.777Z,99899.01
2017-11-30T21:11:47.057Z,99908.18
2017-11-30T21:14:16.400Z,99915.54
2017-11-30T21:16:45.481Z,99900.94
2017-11-30T21:19:17.107Z,99909.72
2017-11-30T21:21:46.589Z,99910.11
2017-11-30T21:24:15.860Z,99906.42
2017-11-30T21:26:44.911Z,99878.75
2017-11-30T21:29:14.350Z,99889.25
2017-11-30T21:31:43.405Z,99887.86
2017-11-30T21:34:12.607Z,99893.77
2017-11-30T21:36:42.195Z,99895.47
2017-11-30T21:39:13.869Z,99908.77
2017-11-30T21:41:43.727Z,99911.33
2017-11-30T21:44:13.129Z,99898.95
2017-11-30T21:46:42.213Z,99888.30
2017-11-30T21:49:12.312Z,99879.89
2017-11-30T21:51:41.253Z,99875.41
2017-11-30T21:54:11.195Z,99873.26
2017-11-30T21:56:40.304Z,99870.44
2017-11-30T21:59:10.359Z,99870.44
2017-11-30T22:01:39.383Z,99866.81
2017-11-30T22:04:08.417Z,99864.95
2017-11-30T22:06:39.396Z,99866.62
2017-11-30T22:09:13.882Z,99859.84
2017-11-30T22:11:43.318Z,99861.66
2017-11-30T22:14:12.534Z,99859.48
2017-11-30T22:16:43.317Z,99846.75
2017-11-30T22:19:12.349Z,99862.97
2017-11-30T22:21:41.557Z,99862.31
2017-11-30T22:24:10.648Z,99860.44
2017-11-30T22:26:40.516Z,99856.06
2017-11-30T22:29:09.920Z,99861.47
2017-11-30T22:31:40.765Z,99859.57
2017-11-30T22:34:09.867Z,99864.23
2017-11-30T22:36:39.872Z,99858.84
2017-11-30T22:39:10.092Z,99857.34
2017-11-30T22:41:41.001Z,99865.95
2017-11-30T22:44:09.988Z,99858.79
2017-11-30T22:46:40.733Z,99863.02
2017-11-30T22:49:09.844Z,99875.18
2017-11-30T22:51:41.408Z,99854.23
2017-11-30T22:54:10.445Z,99866.59
2017-11-30T22:56:39.392Z,99856.92
2017-11-30T22:59:13.228Z,99854.16
2017-11-30T23:01:42.404Z,99846.02
2017-11-30T23:04:11.330Z,99839.91
2017-11-30T23:06:44.152Z,99823.88
2017-11-30T23:09:13.372Z,99820.58
2017-11-30T23:11:43.290Z,99814.56
2017-11-30T23:14:15.562Z,99818.00
2017-11-30T23:16:44.555Z,99800.73
2017-11-30T23:19:14.834Z,99807.91
2017-11-30T23:21:44.973Z,99807.61
2017-11-30T23:24:15.513Z,99814.73
2017-11-30T23:26:44.620Z,99808.69
2017-11-30T23:29:20.869Z,99821.88
2017-11-30T23:31:49.825Z,99831.27
2017-11-30T23:34:19.805Z,99824.71
2017-11-30T23:36:50.167Z,99818.09
2017-11-30T23:39:19.958Z,99827.46
2017-11-30T23:41:48.931Z,99834.11
2017-11-30T23:44:19.028Z,99816.75
2017-11-30T23:46:48.044Z,99809.87
2017-11-30T23:49:17.138Z,99820.30
2017-11-30T23:51:48.813Z,99818.83
2017-11-30T23:54:17.946Z,99823.09
2017-11-30T23:56:47.705Z,99817.85
2017-11-30T23:59:18.727Z,99824.56
